Time;durP1;ratioP1;P1;durP2;ratioP2;P2;SDS_P1;SDS_P2;PMS_P1;PMS_P2;Temp;Humidity;BMP_temperature;BMP_pressure;BME280_temperature;BME280_humidity;BME280_pressure;Samples;Min_cycle;Max_cycle;Signal;HPM_P1;HPM_P2
2023/03/10 00:00:14;;;;;;;2.67;1.30;;;;;;;10.64;100.00;97797.38;5050957;27;20285;-79
2023/03/10 00:02:45;;;;;;;2.53;0.97;;;;;;;10.63;100.00;97794.94;5066166;28;20177;-75
2023/03/10 00:05:10;;;;;;;2.60;1.35;;;;;;;10.99;100.00;97792.50;5032448;28;20404;-76
2023/03/10 00:07:36;;;;;;;3.00;1.20;;;;;;;10.77;100.00;97791.09;5045311;28;20185;-78
2023/03/10 00:10:01;;;;;;;2.17;1.10;;;;;;;10.64;100.00;97791.41;5051042;28;20189;-78
2023/03/10 00:12:26;;;;;;;2.17;1.10;;;;;;;10.70;100.00;97790.84;5060650;28;20204;-76
2023/03/10 00:14:52;;;;;;;2.93;1.37;;;;;;;10.57;100.00;97788.59;5067149;28;20197;-77
2023/03/10 00:17:18;;;;;;;2.43;1.00;;;;;;;10.47;100.00;97782.69;5071570;28;20721;-78
2023/03/10 00:19:43;;;;;;;3.33;1.00;;;;;;;10.44;100.00;97778.66;5072490;28;20181;-77
2023/03/10 00:22:08;;;;;;;1.70;1.10;;;;;;;10.37;100.00;97787.03;5094500;28;20219;-76
2023/03/10 00:24:34;;;;;;;2.83;1.00;;;;;;;10.31;100.00;97785.81;5070982;28;20192;-76
2023/03/10 00:26:59;;;;;;;5.97;1.40;;;;;;;10.31;100.00;97775.53;5071066;28;20283;-75
2023/03/10 00:29:24;;;;;;;1.67;1.00;;;;;;;10.28;100.00;97779.19;5072568;28;20639;-76
2023/03/10 00:31:50;;;;;;;1.77;1.03;;;;;;;10.32;100.00;97777.16;5043540;28;20627;-77
2023/03/10 00:34:15;;;;;;;2.57;1.33;;;;;;;10.37;100.00;97769.88;5042609;28;20610;-76
2023/03/10 00:36:40;;;;;;;3.33;1.07;;;;;;;10.45;100.00;97774.31;5047388;28;20178;-76
2023/03/10 00:39:06;;;;;;;2.83;1.03;;;;;;;10.37;100.00;97764.72;5051308;28;20227;-76
2023/03/10 00:41:38;;;;;;;2.73;1.87;;;;;;;10.31;100.00;97768.63;5067338;28;20383;-75
2023/03/10 00:44:05;;;;;;;4.53;1.37;;;;;;;10.26;100.00;97764.88;5069731;28;20200;-77
2023/03/10 00:46:32;;;;;;;1.77;1.13;;;;;;;10.29;100.00;97752.53;5057648;28;20239;-76
2023/03/10 00:48:57;;;;;;;2.67;1.00;;;;;;;10.37;100.00;97751.06;5071033;28;20200;-76
2023/03/10 00:51:22;;;;;;;2.63;1.33;;;;;;;10.39;100.00;97749.16;5074820;28;20310;-76
2023/03/10 00:53:48;;;;;;;2.30;1.40;;;;;;;10.37;100.00;97746.75;5075699;28;20176;-76
2023/03/10 00:56:17;;;;;;;4.10;1.73;;;;;;;10.33;100.00;97741.03;5071574;28;20203;-76
2023/03/10 00:58:44;;;;;;;4.10;1.53;;;;;;;10.32;100.00;97738.63;5104517;28;20208;-75
2023/03/10 01:01:17;;;;;;;2.43;1.20;;;;;;;10.21;100.00;97742.16;5084380;28;20624;-75
2023/03/10 01:03:43;;;;;;;3.07;1.37;;;;;;;10.25;100.00;97733.22;5068817;28;20263;-75
2023/03/10 01:06:08;;;;;;;2.10;1.20;;;;;;;10.28;100.00;97735.50;5064322;28;20219;-75
2023/03/10 01:08:34;;;;;;;1.70;1.10;;;;;;;10.24;100.00;97734.16;5069966;28;20192;-76
2023/03/10 01:10:59;;;;;;;2.47;1.30;;;;;;;10.22;100.00;97732.69;5071454;28;20235;-75
2023/03/10 01:13:24;;;;;;;3.10;1.40;;;;;;;10.26;100.00;97721.97;5087656;28;20180;-75
2023/03/10 01:15:50;;;;;;;3.03;1.50;;;;;;;10.30;100.00;97720.75;5056632;28;20196;-75
2023/03/10 01:18:16;;;;;;;1.63;1.17;;;;;;;10.28;100.00;97712.38;5070321;28;20169;-76
2023/03/10 01:20:43;;;;;;;1.83;1.00;;;;;;;10.32;100.00;97713.72;5072211;28;20223;-76
2023/03/10 01:23:23;;;;;;;2.17;1.10;;;;;;;10.34;100.00;97709.25;5080393;28;20177;-76
2023/03/10 01:25:49;;;;;;;1.30;0.90;;;;;;;10.33;100.00;97709.38;5054450;28;20208;-76
2023/03/10 01:28:15;;;;;;;2.73;1.47;;;;;;;10.21;100.00;97697.66;5099943;28;20193;-77
2023/03/10 01:30:41;;;;;;;1.90;1.13;;;;;;;10.14;100.00;97700.78;5068114;28;20550;-77
2023/03/10 01:33:08;;;;;;;1.37;1.17;;;;;;;10.24;100.00;97692.25;5080913;28;20177;-78
2023/03/10 01:35:33;;;;;;;4.33;1.47;;;;;;;10.25;100.00;97689.53;5070062;28;20535;-77
2023/03/10 01:37:59;;;;;;;2.40;0.97;;;;;;;10.17;100.00;97682.53;5069864;28;20703;-79
2023/03/10 01:40:25;;;;;;;2.13;1.10;;;;;;;10.10;100.00;97672.97;5065733;28;20233;-78
2023/03/10 01:42:51;;;;;;;2.57;0.97;;;;;;;10.09;100.00;97677.28;5083400;28;20173;-76
2023/03/10 01:45:16;;;;;;;1.63;1.00;;;;;;;10.12;100.00;97668.47;5069094;28;20633;-76
2023/03/10 01:47:42;;;;;;;0.93;0.70;;;;;;;10.08;100.00;97662.00;5070142;28;20184;-77
2023/03/10 01:50:15;;;;;;;2.03;1.10;;;;;;;10.11;100.00;97665.13;5062324;28;20194;-76
2023/03/10 01:52:45;;;;;;;0.90;0.80;;;;;;;10.22;100.00;97661.56;5100097;28;20588;-76
2023/03/10 01:55:33;;;;;;;1.20;0.83;;;;;;;10.26;100.00;97662.09;5071079;28;20209;-77
2023/03/10 01:57:59;;;;;;;0.80;0.80;;;;;;;10.26;100.00;97660.31;5069369;28;20192;-76
2023/03/10 02:00:28;;;;;;;1.63;0.90;;;;;;;10.26;100.00;97657.75;5065662;28;20219;-77
2023/03/10 02:03:06;;;;;;;1.50;0.80;;;;;;;10.26;100.00;97654.38;5082384;28;20185;-77
2023/03/10 02:05:33;;;;;;;1.07;0.90;;;;;;;10.18;100.00;97648.19;5069888;28;20197;-77
2023/03/10 02:07:59;;;;;;;1.30;1.03;;;;;;;10.19;100.00;97643.84;5069528;28;20188;-77
2023/03/10 02:10:26;;;;;;;3.00;0.90;;;;;;;10.25;100.00;97642.50;5067167;28;20215;-77
2023/03/10 02:12:51;;;;;;;1.90;1.20;;;;;;;10.07;100.00;97637.28;5082516;28;20191;-77
2023/03/10 02:15:17;;;;;;;0.97;0.80;;;;;;;10.02;100.00;97635.13;5062054;28;20659;-77
2023/03/10 02:17:42;;;;;;;2.57;1.03;;;;;;;10.08;100.00;97636.31;5065478;28;20646;-76
2023/03/10 02:20:11;;;;;;;1.20;0.80;;;;;;;10.07;100.00;97624.44;5060953;28;20248;-75
2023/03/10 02:22:38;;;;;;;2.33;1.00;;;;;;;10.03;100.00;97621.31;5084561;28;20173;-76
2023/03/10 02:25:29;;;;;;;1.60;0.73;;;;;;;9.87;100.00;97611.66;5069702;28;20180;-76
2023/03/10 02:27:55;;;;;;;1.57;1.07;;;;;;;9.95;100.00;97621.25;5064455;28;20189;-76
2023/03/10 02:30:26;;;;;;;0.70;0.70;;;;;;;9.82;100.00;97619.78;5069431;28;20597;-75
2023/03/10 02:32:56;;;;;;;1.80;1.00;;;;;;;9.76;100.00;97616.97;5086362;28;20235;-76
2023/03/10 02:35:22;;;;;;;1.77;0.90;;;;;;;9.72;100.00;97620.75;5074635;28;20219;-75
2023/03/10 02:37:49;;;;;;;1.63;1.10;;;;;;;9.73;100.00;97625.75;5075189;28;20267;-75
2023/03/10 02:40:45;;;;;;;0.80;0.70;;;;;;;9.72;100.00;97624.13;5065774;28;20214;-75
2023/03/10 02:43:22;;;;;;;1.13;0.80;;;;;;;9.77;100.00;97626.28;5042221;28;20182;-76
2023/03/10 02:45:50;;;;;;;1.43;0.83;;;;;;;9.61;100.00;97626.84;5051617;28;20320;-76
2023/03/10 02:48:24;;;;;;;1.50;0.93;;;;;;;9.46;100.00;97627.28;5035197;28;20609;-75
2023/03/10 02:50:51;;;;;;;5.10;1.80;;;;;;;9.43;100.00;97634.47;5019655;28;20239;-74
2023/03/10 02:53:19;;;;;;;1.90;1.10;;;;;;;9.36;100.00;97629.06;5061355;28;20193;-75
2023/03/10 02:55:45;;;;;;;2.50;1.17;;;;;;;9.26;100.00;97628.25;5034075;28;20719;-75
2023/03/10 02:58:11;;;;;;;1.27;0.93;;;;;;;9.24;100.00;97637.84;5051868;28;20197;-75
2023/03/10 03:00:38;;;;;;;2.77;1.40;;;;;;;9.36;100.00;97635.00;5046241;28;20233;-75
2023/03/10 03:03:05;;;;;;;1.10;0.97;;;;;;;9.33;100.00;97630.16;5049716;28;20193;-76
2023/03/10 03:05:30;;;;;;;2.17;1.40;;;;;;;9.36;100.00;97622.19;5051663;28;20204;-76
2023/03/10 03:07:55;;;;;;;3.37;1.50;;;;;;;9.31;100.00;97618.41;5034719;28;20186;-76
2023/03/10 03:10:21;;;;;;;3.30;1.30;;;;;;;9.41;100.00;97620.97;5043927;28;20550;-75
2023/03/10 03:12:46;;;;;;;2.00;1.30;;;;;;;9.46;100.00;97618.78;5048387;28;20223;-75
2023/03/10 03:15:11;;;;;;;1.60;1.03;;;;;;;9.42;100.00;97617.44;5035012;28;20180;-76
2023/03/10 03:17:37;;;;;;;3.57;1.00;;;;;;;9.51;100.00;97609.75;5051548;28;20181;-75
2023/03/10 03:20:10;;;;;;;3.20;1.20;;;;;;;9.52;100.00;97602.84;5059550;28;20220;-75
2023/03/10 03:22:36;;;;;;;2.47;1.20;;;;;;;9.57;100.00;97602.44;5103744;28;20539;-76
2023/03/10 03:25:01;;;;;;;2.43;0.80;;;;;;;9.41;100.00;97605.56;5074351;28;20184;-76
2023/03/10 03:27:29;;;;;;;1.57;1.03;;;;;;;9.47;100.00;97605.00;5072159;28;20232;-77
2023/03/10 03:29:55;;;;;;;2.80;1.10;;;;;;;9.53;100.00;97601.91;5072201;28;20184;-77
2023/03/10 03:32:20;;;;;;;1.53;0.90;;;;;;;9.44;100.00;97605.28;5079010;28;20231;-77
2023/03/10 03:34:45;;;;;;;1.40;1.00;;;;;;;9.40;100.00;97601.38;5072259;28;20525;-77
2023/03/10 03:37:11;;;;;;;1.50;1.10;;;;;;;9.41;100.00;97590.97;5072329;28;20172;-77
2023/03/10 03:39:36;;;;;;;2.57;1.10;;;;;;;9.39;100.00;97597.19;5072002;28;20260;-77
2023/03/10 03:42:01;;;;;;;2.50;1.03;;;;;;;9.35;100.00;97602.59;5094653;28;20718;-77
2023/03/10 03:44:27;;;;;;;2.40;1.00;;;;;;;9.43;100.00;97598.56;5073835;28;20213;-77
2023/03/10 03:46:52;;;;;;;3.33;1.10;;;;;;;9.49;100.00;97601.34;5105323;28;20656;-77
2023/03/10 03:49:17;;;;;;;1.83;0.90;;;;;;;9.42;100.00;97594.34;5073606;28;20189;-77
2023/03/10 03:51:42;;;;;;;1.93;1.10;;;;;;;9.44;100.00;97600.97;5079024;28;20654;-77
2023/03/10 03:54:08;;;;;;;1.80;0.90;;;;;;;9.35;100.00;97600.03;5074133;28;20234;-77
2023/03/10 03:56:33;;;;;;;1.83;1.30;;;;;;;9.33;100.00;97603.69;5073050;28;20192;-77
2023/03/10 03:58:58;;;;;;;1.97;1.30;;;;;;;9.26;100.00;97602.63;5071943;28;20184;-77
2023/03/10 04:01:24;;;;;;;3.10;1.17;;;;;;;9.27;100.00;97606.81;5064255;28;20593;-77
2023/03/10 04:03:49;;;;;;;1.40;1.30;;;;;;;9.30;100.00;97593.69;5070957;28;20181;-77
2023/03/10 04:06:14;;;;;;;3.53;1.40;;;;;;;9.18;100.00;97596.41;5072872;28;20686;-77
2023/03/10 04:08:40;;;;;;;1.53;1.20;;;;;;;9.13;100.00;97597.75;5073042;28;20161;-76
2023/03/10 04:11:06;;;;;;;3.13;1.10;;;;;;;9.22;100.00;97599.50;5073583;28;20742;-77
2023/03/10 04:13:31;;;;;;;1.47;0.97;;;;;;;9.24;100.00;97601.94;5079004;28;20209;-77
2023/03/10 04:15:58;;;;;;;4.40;1.20;;;;;;;9.19;100.00;97600.59;5058381;28;20303;-76
2023/03/10 04:18:23;;;;;;;2.63;1.20;;;;;;;9.27;100.00;97596.53;5080564;28;20185;-77
2023/03/10 04:20:49;;;;;;;1.70;1.03;;;;;;;9.35;100.00;97599.22;5071594;28;20296;-76
2023/03/10 04:23:15;;;;;;;1.67;1.10;;;;;;;9.45;100.00;97594.91;5092851;28;20188;-77
2023/03/10 04:25:42;;;;;;;1.40;1.00;;;;;;;9.48;100.00;97591.25;5073518;28;20199;-76
2023/03/10 04:28:08;;;;;;;3.10;1.50;;;;;;;9.53;100.00;97592.44;5071601;28;20299;-77
2023/03/10 04:30:33;;;;;;;3.27;1.10;;;;;;;9.56;100.00;97581.06;5049734;27;20717;-77
2023/03/10 04:32:59;;;;;;;3.53;1.20;;;;;;;9.40;100.00;97579.06;5096250;28;20216;-77
2023/03/10 04:35:24;;;;;;;3.87;1.33;;;;;;;9.43;100.00;97573.69;5071275;28;20271;-75
2023/03/10 04:37:50;;;;;;;3.33;1.20;;;;;;;9.49;100.00;97572.34;5071270;28;20212;-76
2023/03/10 04:40:15;;;;;;;3.50;1.63;;;;;;;9.48;100.00;97563.81;5065800;28;20212;-76
2023/03/10 04:42:41;;;;;;;3.50;1.23;;;;;;;9.40;100.00;97552.63;5085638;28;20195;-76
2023/03/10 04:45:07;;;;;;;2.10;1.10;;;;;;;9.37;100.00;97564.78;5070955;28;20586;-75
2023/03/10 04:47:32;;;;;;;4.43;1.47;;;;;;;9.32;100.00;97558.47;5070786;28;20231;-76
2023/03/10 04:49:58;;;;;;;2.40;1.30;;;;;;;9.26;100.00;97552.09;5071569;28;20629;-75
2023/03/10 04:52:23;;;;;;;4.50;1.50;;;;;;;9.37;100.00;97562.22;5093969;28;20696;-76
2023/03/10 04:54:48;;;;;;;4.83;1.87;;;;;;;9.43;100.00;97555.72;5104688;28;20184;-77
2023/03/10 04:57:15;;;;;;;4.60;1.70;;;;;;;9.42;100.00;97551.53;5072147;28;20185;-77
2023/03/10 04:59:40;;;;;;;5.80;2.17;;;;;;;9.51;100.00;97545.59;5070559;28;20267;-78
2023/03/10 05:02:05;;;;;;;5.77;2.20;;;;;;;9.42;100.00;97543.03;5093706;28;20659;-77
2023/03/10 05:04:31;;;;;;;2.63;1.17;;;;;;;9.38;100.00;97532.25;5070440;28;20671;-78
2023/03/10 05:06:56;;;;;;;3.53;1.50;;;;;;;9.30;100.00;97534.69;5070710;28;20200;-78
2023/03/10 05:09:21;;;;;;;5.23;1.80;;;;;;;9.42;100.00;97527.66;5070552;28;20540;-77
2023/03/10 05:11:47;;;;;;;6.80;2.00;;;;;;;9.52;100.00;97520.72;5089631;28;20211;-77
2023/03/10 05:14:13;;;;;;;6.10;1.80;;;;;;;9.47;100.00;97526.25;5071700;28;20184;-77
2023/03/10 05:16:38;;;;;;;6.90;2.20;;;;;;;9.54;100.00;97511.13;5057188;28;20176;-76
2023/03/10 05:19:04;;;;;;;5.63;2.30;;;;;;;9.42;100.00;97510.47;5104296;28;20195;-76
2023/03/10 05:21:29;;;;;;;3.80;1.47;;;;;;;9.32;100.00;97502.81;5075600;28;20708;-77
2023/03/10 05:23:54;;;;;;;5.87;1.90;;;;;;;9.36;100.00;97499.03;5079584;28;20541;-77
2023/03/10 05:26:20;;;;;;;8.23;2.00;;;;;;;9.44;100.00;97500.06;5070205;28;20201;-76
2023/03/10 05:28:45;;;;;;;7.03;2.03;;;;;;;9.47;100.00;97498.03;5103790;28;20650;-77
2023/03/10 05:31:13;;;;;;;7.37;2.33;;;;;;;9.61;100.00;97501.09;5072434;28;20690;-76
2023/03/10 05:33:39;;;;;;;5.83;2.03;;;;;;;9.60;100.00;97496.91;5076692;28;20188;-77
2023/03/10 05:36:10;;;;;;;5.77;1.77;;;;;;;9.58;100.00;97498.84;5071529;28;20267;-77
2023/03/10 05:38:36;;;;;;;4.90;2.33;;;;;;;9.62;100.00;97495.81;5071459;28;20604;-77
2023/03/10 05:41:05;;;;;;;6.13;1.87;;;;;;;9.61;100.00;97495.97;5071314;28;20235;-77
2023/03/10 05:43:31;;;;;;;4.77;1.90;;;;;;;9.76;100.00;97498.88;5077313;28;20671;-77
2023/03/10 05:45:57;;;;;;;6.23;2.03;;;;;;;9.78;100.00;97504.69;5071065;28;20303;-77
2023/03/10 05:48:24;;;;;;;4.67;1.80;;;;;;;9.77;100.00;97503.84;5070230;28;20269;-77
2023/03/10 05:51:03;;;;;;;9.00;1.90;;;;;;;9.80;100.00;97507.94;5069672;28;20242;-77
2023/03/10 05:53:29;;;;;;;5.43;2.00;;;;;;;9.78;100.00;97499.53;5077956;28;20233;-76
2023/03/10 05:55:55;;;;;;;6.03;2.20;;;;;;;9.76;100.00;97493.72;5071197;28;20188;-77
2023/03/10 05:58:21;;;;;;;6.27;1.50;;;;;;;9.66;100.00;97491.22;5069153;28;20234;-79
2023/03/10 06:00:47;;;;;;;7.23;2.67;;;;;;;9.61;100.00;97494.22;5066314;28;20698;-79
2023/03/10 06:03:12;;;;;;;4.60;1.57;;;;;;;9.65;100.00;97505.00;5078306;28;20222;-79
2023/03/10 06:05:38;;;;;;;5.60;1.90;;;;;;;9.62;100.00;97495.81;5066303;28;20651;-79
2023/03/10 06:08:04;;;;;;;5.27;1.80;;;;;;;9.51;100.00;97501.13;5074624;28;20212;-79
2023/03/10 06:10:29;;;;;;;8.67;1.93;;;;;;;9.60;100.00;97499.47;5070417;28;20670;-80
2023/03/10 06:12:55;;;;;;;5.27;1.70;;;;;;;9.59;100.00;97497.84;5086225;28;20232;-80
2023/03/10 06:15:20;;;;;;;4.60;1.83;;;;;;;9.60;100.00;97496.91;5066106;28;20181;-79
2023/03/10 06:17:46;;;;;;;6.97;1.80;;;;;;;9.72;100.00;97492.41;5071164;28;20189;-81
2023/03/10 06:20:11;;;;;;;7.20;1.73;;;;;;;9.76;100.00;97488.59;5065708;28;20199;-77
2023/03/10 06:22:37;;;;;;;5.20;1.83;;;;;;;9.68;100.00;97492.69;5076594;28;20275;-77
2023/03/10 06:25:03;;;;;;;7.33;2.53;;;;;;;9.74;100.00;97491.31;5074455;28;20268;-76
2023/03/10 06:27:30;;;;;;;5.33;2.10;;;;;;;9.85;100.00;97503.97;5063299;28;20197;-76
2023/03/10 06:29:55;;;;;;;8.40;2.13;;;;;;;9.80;100.00;97500.22;5072318;28;20184;-77
2023/03/10 06:32:21;;;;;;;5.67;1.80;;;;;;;9.72;100.00;97508.63;5085010;28;20302;-77
2023/03/10 06:34:46;;;;;;;5.80;2.17;;;;;;;9.73;100.00;97517.94;5072756;28;20583;-78
2023/03/10 06:37:12;;;;;;;5.43;1.60;;;;;;;9.74;100.00;97514.41;5074262;28;20200;-77
2023/03/10 06:39:38;;;;;;;7.53;1.90;;;;;;;9.69;100.00;97517.41;5073068;28;20180;-77
2023/03/10 06:42:04;;;;;;;7.77;2.37;;;;;;;9.79;100.00;97514.00;5060461;28;20266;-77
2023/03/10 06:44:30;;;;;;;10.00;2.30;;;;;;;9.91;100.00;97517.19;5042081;28;20235;-77
2023/03/10 06:46:55;;;;;;;8.67;1.87;;;;;;;9.90;100.00;97511.25;5052570;28;20564;-77
2023/03/10 06:49:20;;;;;;;4.93;1.50;;;;;;;9.90;100.00;97516.38;5052859;28;20174;-77
2023/03/10 06:51:46;;;;;;;4.67;1.67;;;;;;;10.00;100.00;97508.63;5061643;28;20223;-77
2023/03/10 06:54:11;;;;;;;3.33;1.60;;;;;;;10.11;100.00;97505.84;5063333;28;20264;-77
2023/03/10 06:56:36;;;;;;;4.53;1.70;;;;;;;10.18;100.00;97504.31;5072306;28;20624;-76
2023/03/10 06:59:02;;;;;;;4.13;1.50;;;;;;;10.21;100.00;97503.22;5072487;28;20177;-78
2023/03/10 07:01:30;;;;;;;5.97;1.33;;;;;;;10.33;100.00;97499.50;5067733;28;20230;-76
2023/03/10 07:03:56;;;;;;;3.13;1.20;;;;;;;10.20;100.00;97495.69;5069660;28;20186;-76
2023/03/10 07:06:23;;;;;;;5.60;1.60;;;;;;;10.25;100.00;97493.47;5067968;28;20308;-78
2023/03/10 07:08:49;;;;;;;3.60;1.27;;;;;;;10.22;100.00;97492.00;5065420;28;20177;-76
2023/03/10 07:11:14;;;;;;;4.73;1.57;;;;;;;10.05;100.00;97493.59;5055266;28;20244;-75
2023/03/10 07:13:40;;;;;;;2.30;1.10;;;;;;;10.08;100.00;97497.63;5043914;28;20262;-75
2023/03/10 07:16:06;;;;;;;5.00;1.50;;;;;;;10.23;100.00;97487.66;5041160;28;20273;-75
2023/03/10 07:18:31;;;;;;;5.43;1.60;;;;;;;10.18;100.00;97496.63;5053944;28;20196;-76
2023/03/10 07:20:57;;;;;;;6.40;1.40;;;;;;;10.22;100.00;97496.31;5060694;28;20701;-75
2023/03/10 07:23:26;;;;;;;3.83;1.30;;;;;;;10.00;100.00;97490.66;5080431;28;20314;-75
2023/03/10 07:25:53;;;;;;;5.33;1.57;;;;;;;10.04;100.00;97488.59;5073307;28;20261;-73
2023/03/10 07:28:18;;;;;;;6.80;1.87;;;;;;;10.02;100.00;97499.81;5071721;28;20291;-75
2023/03/10 07:30:44;;;;;;;4.63;1.73;;;;;;;10.09;100.00;97499.25;5070981;28;20376;-76
2023/03/10 07:33:09;;;;;;;3.95;1.75;;;;;;;10.22;100.00;97499.72;5065869;28;20427;-74
2023/03/10 07:35:35;;;;;;;6.63;2.33;;;;;;;10.33;100.00;97493.53;5092732;28;20697;-75
2023/03/10 07:38:01;;;;;;;5.00;1.47;;;;;;;10.13;100.00;97500.56;5072827;28;20176;-77
2023/03/10 07:40:26;;;;;;;4.80;1.80;;;;;;;10.24;100.00;97507.25;5098616;28;20243;-75
2023/03/10 07:42:53;;;;;;;6.37;2.27;;;;;;;10.18;100.00;97499.19;5065120;28;20181;-75
2023/03/10 07:45:19;;;;;;;5.90;2.50;;;;;;;10.07;100.00;97488.31;5064757;28;20247;-75
2023/03/10 07:47:44;;;;;;;7.20;2.00;;;;;;;9.91;100.00;97476.09;5071305;28;20232;-75
2023/03/10 07:50:10;;;;;;;3.57;1.63;;;;;;;10.08;100.00;97477.06;5063574;28;20353;-75
2023/03/10 07:52:36;;;;;;;5.50;2.00;;;;;;;10.09;100.00;97471.78;5102977;28;20543;-74
2023/03/10 07:55:01;;;;;;;4.00;1.67;;;;;;;10.33;100.00;97478.13;5071820;28;20185;-74
2023/03/10 07:57:27;;;;;;;5.83;1.40;;;;;;;10.26;100.00;97488.19;5068635;28;20216;-74
2023/03/10 07:59:52;;;;;;;2.07;1.07;;;;;;;10.19;100.00;97487.13;5059938;28;20191;-77
2023/03/10 08:02:18;;;;;;;2.10;1.03;;;;;;;10.15;100.00;97496.09;5062701;27;20647;-75
2023/03/10 08:04:43;;;;;;;4.17;1.33;;;;;;;10.11;100.00;97484.47;5051764;28;20184;-76
2023/03/10 08:07:09;;;;;;;1.40;0.90;;;;;;;10.10;100.00;97500.88;5049753;28;20605;-74
2023/03/10 08:09:34;;;;;;;3.60;1.40;;;;;;;10.10;100.00;97501.66;5051229;28;20188;-74
2023/03/10 08:12:00;;;;;;;6.10;1.50;;;;;;;10.20;100.00;97506.75;5076993;28;20234;-73
2023/03/10 08:14:30;;;;;;;2.83;1.27;;;;;;;10.38;100.00;97508.53;5069741;28;20169;-76
2023/03/10 08:16:56;;;;;;;4.20;1.33;;;;;;;10.34;100.00;97518.28;5087161;28;20274;-74
2023/03/10 08:19:26;;;;;;;3.70;1.20;;;;;;;10.43;100.00;97503.78;5066897;28;20648;-76
2023/03/10 08:21:54;;;;;;;5.77;1.30;;;;;;;10.45;100.00;97510.38;5071438;28;20247;-76
2023/03/10 08:24:19;;;;;;;5.40;1.87;;;;;;;10.60;100.00;97507.31;5073042;28;20241;-75
2023/03/10 08:26:45;;;;;;;3.87;1.47;;;;;;;10.64;100.00;97521.47;5069091;28;20205;-74
2023/03/10 08:29:10;;;;;;;4.20;1.60;;;;;;;10.89;100.00;97527.63;5069358;28;20173;-74
2023/03/10 08:31:35;;;;;;;5.03;2.00;;;;;;;11.06;100.00;97520.84;5047496;28;20230;-79
2023/03/10 08:34:01;;;;;;;3.20;1.40;;;;;;;11.15;100.00;97521.72;5051540;28;20181;-77
2023/03/10 08:36:29;;;;;;;4.37;1.83;;;;;;;11.02;100.00;97529.81;5050662;28;20189;-78
2023/03/10 08:38:55;;;;;;;2.90;1.10;;;;;;;10.86;100.00;97527.91;5050636;28;20240;-78
2023/03/10 08:41:26;;;;;;;4.80;1.23;;;;;;;10.67;100.00;97536.63;5083976;28;20695;-78
2023/03/10 08:43:53;;;;;;;3.00;1.43;;;;;;;10.79;100.00;97532.88;5065822;28;20169;-77
2023/03/10 08:46:20;;;;;;;2.43;1.13;;;;;;;11.16;100.00;97530.25;5070357;28;20707;-79
2023/03/10 08:48:46;;;;;;;5.13;1.60;;;;;;;11.34;100.00;97532.75;5104504;28;20643;-76
2023/03/10 08:51:12;;;;;;;2.47;0.93;;;;;;;11.36;100.00;97534.25;5073317;28;20250;-77
2023/03/10 08:53:37;;;;;;;2.77;1.27;;;;;;;11.67;100.00;97535.50;5085875;28;20651;-76
2023/03/10 08:56:04;;;;;;;2.70;1.40;;;;;;;11.60;100.00;97527.59;5063700;28;20203;-76
2023/03/10 08:58:29;;;;;;;3.80;1.37;;;;;;;11.77;100.00;97542.16;5070671;28;20181;-76
2023/03/10 09:00:55;;;;;;;4.30;1.40;;;;;;;11.76;100.00;97547.47;5070758;28;20796;-76
2023/03/10 09:03:21;;;;;;;3.20;1.30;;;;;;;11.73;100.00;97545.19;5063057;28;20193;-76
2023/03/10 09:05:46;;;;;;;4.67;1.63;;;;;;;11.57;100.00;97546.75;5070326;28;20230;-76
2023/03/10 09:08:11;;;;;;;3.83;2.03;;;;;;;11.56;100.00;97558.00;5071239;28;20234;-75
2023/03/10 09:10:42;;;;;;;4.60;1.70;;;;;;;11.34;100.00;97554.16;5068168;28;20297;-73
2023/03/10 09:13:08;;;;;;;4.67;2.10;;;;;;;11.84;100.00;97552.66;5080914;28;20263;-74
2023/03/10 09:15:34;;;;;;;2.20;1.07;;;;;;;12.34;100.00;97556.25;5070287;28;21004;-73
2023/03/10 09:18:00;;;;;;;3.23;1.60;;;;;;;13.22;100.00;97554.84;5069615;28;20181;-74
2023/03/10 09:20:26;;;;;;;2.63;1.70;;;;;;;14.49;99.19;97559.28;5067777;28;20223;-74
2023/03/10 09:22:53;;;;;;;3.07;1.40;;;;;;;14.87;96.81;97568.91;5083220;28;20251;-74
2023/03/10 09:25:19;;;;;;;4.70;1.73;;;;;;;15.23;93.23;97562.31;5071318;28;20268;-75
2023/03/10 09:27:44;;;;;;;5.90;1.80;;;;;;;16.03;90.67;97563.44;5069468;28;20287;-75
2023/03/10 09:30:10;;;;;;;6.40;1.77;;;;;;;15.67;87.64;97566.75;5056930;28;20524;-77
2023/03/10 09:32:35;;;;;;;2.10;1.10;;;;;;;15.67;85.18;97561.56;5086467;28;20224;-76
2023/03/10 09:35:01;;;;;;;3.67;1.20;;;;;;;16.40;82.22;97559.09;5067820;28;20209;-77
2023/03/10 09:37:26;;;;;;;2.00;1.10;;;;;;;17.07;72.45;97566.72;5069615;28;20528;-77
2023/03/10 09:39:52;;;;;;;3.77;1.37;;;;;;;16.12;78.69;97569.34;5070404;28;20181;-76
2023/03/10 09:42:26;;;;;;;2.43;1.13;;;;;;;15.23;83.82;97570.91;5086076;28;20216;-76
2023/03/10 09:44:54;;;;;;;2.70;1.30;;;;;;;14.41;90.76;97558.53;5067532;28;20370;-77
2023/03/10 09:47:52;;;;;;;4.10;1.40;;;;;;;13.99;95.98;97557.91;5072579;28;20473;-77
2023/03/10 09:50:33;;;;;;;2.00;1.00;;;;;;;13.71;97.42;97566.88;5098664;27;20199;-78
2023/03/10 09:53:06;;;;;;;3.03;1.10;;;;;;;13.32;100.00;97570.19;5102593;28;20184;-77
2023/03/10 09:55:42;;;;;;;3.43;1.67;;;;;;;12.94;100.00;97561.31;5073116;28;20191;-77
2023/03/10 09:58:30;;;;;;;2.70;1.40;;;;;;;12.90;100.00;97558.25;5059958;28;20182;-81
2023/03/10 10:00:57;;;;;;;5.17;1.83;;;;;;;13.22;100.00;97565.19;5065294;28;20302;-79
2023/03/10 10:03:41;;;;;;;2.23;1.17;;;;;;;13.51;100.00;97563.88;5078709;28;20560;-77
2023/03/10 10:06:10;;;;;;;3.20;1.37;;;;;;;13.54;100.00;97563.56;5087707;28;20284;-77
2023/03/10 10:08:42;;;;;;;1.47;0.93;;;;;;;13.21;100.00;97565.34;5090700;28;20187;-77
2023/03/10 10:11:14;;;;;;;2.43;1.10;;;;;;;13.14;100.00;97574.72;5059160;28;20247;-77
2023/03/10 10:13:40;;;;;;;2.13;1.07;;;;;;;12.84;100.00;97567.44;5077506;28;20187;-78
2023/03/10 10:16:32;;;;;;;4.47;1.73;;;;;;;12.29;100.00;97575.72;5065604;28;20181;-78
2023/03/10 10:19:17;;;;;;;2.27;1.50;;;;;;;11.86;100.00;97581.66;5070305;28;20226;-80
2023/03/10 10:22:13;;;;;;;3.93;1.13;;;;;;;11.56;100.00;97588.91;5084437;27;20268;-80
2023/03/10 10:24:39;;;;;;;3.60;1.30;;;;;;;12.07;100.00;97573.56;5080114;28;20179;-80
2023/03/10 10:27:04;;;;;;;2.07;1.10;;;;;;;13.15;100.00;97569.38;5091005;28;20247;-80
2023/03/10 10:29:36;;;;;;;2.73;1.60;;;;;;;13.53;100.00;97566.28;5072540;28;20218;-80
2023/03/10 10:32:08;;;;;;;3.00;1.30;;;;;;;13.80;100.00;97567.66;5095747;27;20786;-77
2023/03/10 10:34:35;;;;;;;3.50;1.23;;;;;;;14.40;99.68;97564.66;5070139;28;20246;-78
2023/03/10 10:37:01;;;;;;;2.63;1.27;;;;;;;14.82;95.68;97558.28;5087615;28;20197;-78
2023/03/10 10:39:53;;;;;;;2.33;1.10;;;;;;;15.16;93.00;97557.03;5059478;28;20180;-80
2023/03/10 10:42:23;;;;;;;2.27;1.03;;;;;;;14.79;94.63;97569.78;5076119;28;20326;-77
2023/03/10 10:44:55;;;;;;;2.13;0.57;;;;;;;14.65;96.60;97561.00;5069805;28;20233;-81
2023/03/10 10:47:35;;;;;;;1.70;1.10;;;;;;;13.90;98.12;97557.13;5071350;28;20212;-79
2023/03/10 10:50:25;;;;;;;1.73;1.10;;;;;;;13.79;100.00;97555.75;5092648;28;20172;-77
2023/03/10 10:53:10;;;;;;;1.53;0.80;;;;;;;14.37;98.43;97552.88;5046052;28;20258;-80
2023/03/10 10:55:35;;;;;;;5.23;0.97;;;;;;;14.49;95.97;97553.31;5056229;28;20196;-79
2023/03/10 10:58:05;;;;;;;2.20;0.70;;;;;;;14.60;97.60;97546.91;5074198;28;20287;-76
2023/03/10 11:00:38;;;;;;;1.03;0.60;;;;;;;14.34;96.11;97550.66;5072053;28;20227;-79
2023/03/10 11:03:23;;;;;;;1.07;0.70;;;;;;;14.03;98.63;97560.00;5076722;28;20178;-79
2023/03/10 11:05:48;;;;;;;0.70;0.50;;;;;;;13.87;100.00;97562.66;5072849;28;20172;-78
2023/03/10 11:08:25;;;;;;;1.60;0.60;;;;;;;13.75;100.00;97559.63;5073218;28;20181;-78
2023/03/10 11:10:59;;;;;;;0.90;0.60;;;;;;;13.89;100.00;97568.44;5069526;28;20694;-78
2023/03/10 11:13:36;;;;;;;1.57;1.00;;;;;;;13.90;100.00;97562.31;5085031;28;20318;-79
2023/03/10 11:16:10;;;;;;;1.80;0.80;;;;;;;13.93;100.00;97558.56;5069638;28;20176;-80
2023/03/10 11:18:43;;;;;;;0.70;0.70;;;;;;;14.33;100.00;97549.81;5094708;28;20688;-81
2023/03/10 11:21:25;;;;;;;1.10;0.90;;;;;;;14.55;99.43;97549.22;5061766;28;20223;-74
2023/03/10 11:23:58;;;;;;;3.27;1.00;;;;;;;14.51;99.53;97549.56;5098500;28;20188;-77
2023/03/10 11:26:44;;;;;;;1.00;0.90;;;;;;;14.61;99.88;97551.94;5077838;28;20344;-77
2023/03/10 11:29:12;;;;;;;0.97;0.90;;;;;;;14.35;100.00;97549.66;5074998;28;20263;-76
2023/03/10 11:31:46;;;;;;;1.90;0.77;;;;;;;14.53;100.00;97557.16;5072119;28;20348;-78